Time;durP1;ratioP1;P1;durP2;ratioP2;P2;SDS_P1;SDS_P2;PMS_P1;PMS_P2;Temp;Humidity;BMP_temperature;BMP_pressure;BME280_temperature;BME280_humidity;BME280_pressure;Samples;Min_cycle;Max_cycle;Signal;HPM_P1;HPM_P2
2023/10/05 00:03:46;;;;;;;3.45;1.27;;;;;;;14.94;95.74;102294.47;5091282;28;20040;-73
2023/10/05 00:06:16;;;;;;;6.90;1.45;;;;;;;14.93;95.46;102295.34;5088024;28;20055;-73
2023/10/05 00:08:44;;;;;;;4.93;1.60;;;;;;;14.92;95.43;102296.28;5073760;28;20040;-73
2023/10/05 00:11:57;;;;;;;2.60;1.40;;;;;;;14.92;95.30;102297.13;5074120;28;20041;-73
2023/10/05 00:14:09;;;;;;;3.03;1.17;;;;;;;14.93;95.71;102304.13;5077812;28;20528;-73
2023/10/05 00:16:37;;;;;;;7.57;1.42;;;;;;;14.92;95.40;102297.13;5076758;28;20032;-73
2023/10/05 00:19:15;;;;;;;4.35;1.67;;;;;;;14.92;95.36;102296.28;5074115;28;20131;-73
2023/10/05 00:21:52;;;;;;;2.73;1.30;;;;;;;14.92;95.67;102298.94;5075483;28;20122;-73
2023/10/05 00:24:29;;;;;;;3.45;1.60;;;;;;;14.91;95.57;102295.41;5088787;28;20348;-73
2023/10/05 00:26:56;;;;;;;4.65;1.35;;;;;;;14.92;95.65;102291.00;5073609;28;20425;-73
2023/10/05 00:29:27;;;;;;;3.85;1.38;;;;;;;14.92;95.71;102302.41;5074221;28;20056;-73
2023/10/05 00:31:57;;;;;;;4.07;1.55;;;;;;;14.93;95.55;102303.28;5092301;28;20028;-73
2023/10/05 00:34:27;;;;;;;4.20;1.30;;;;;;;14.92;95.54;102294.50;5090892;28;20066;-74
2023/10/05 00:36:58;;;;;;;5.97;1.83;;;;;;;14.91;95.38;102305.09;5073078;28;20335;-73
2023/10/05 00:39:25;;;;;;;3.88;1.30;;;;;;;14.92;95.46;102298.94;5072268;28;20100;-73
2023/10/05 00:44:30;;;;;;;7.40;1.90;;;;;;;14.89;95.33;102299.88;5087971;28;20040;-74
2023/10/05 00:46:59;;;;;;;2.88;1.45;;;;;;;14.89;95.17;102301.66;5094947;28;20330;-73
2023/10/05 00:49:30;;;;;;;5.72;1.45;;;;;;;14.91;95.21;102300.69;5095183;28;20032;-73
2023/10/05 00:54:32;;;;;;;4.95;1.80;;;;;;;14.90;94.53;102303.41;5095183;28;20031;-74
2023/10/05 00:57:02;;;;;;;1.98;1.13;;;;;;;14.91;94.58;102305.09;5095665;28;20044;-74
2023/10/05 00:59:31;;;;;;;2.40;1.33;;;;;;;14.92;94.72;102302.41;5087413;28;20319;-74
2023/10/05 01:04:52;;;;;;;6.45;1.45;;;;;;;14.93;94.27;102301.47;5405219;22;20070;-73
2023/10/05 01:07:18;;;;;;;3.05;1.30;;;;;;;14.92;94.13;102291.88;5098183;28;20046;-73
2023/10/05 01:12:36;;;;;;;2.78;1.13;;;;;;;14.93;93.78;102293.56;5100038;28;20296;-73
2023/10/05 01:15:05;;;;;;;5.30;1.52;;;;;;;14.94;93.72;102284.75;5097080;28;20378;-73
2023/10/05 01:17:31;;;;;;;;;;;;;;;14.92;93.39;102291.00;5097582;28;20357;-73
2023/10/05 01:20:07;;;;;;;4.80;1.35;;;;;;;14.93;93.36;102287.44;5098686;28;19915;-73
2023/10/05 01:22:35;;;;;;;5.45;1.60;;;;;;;14.89;91.74;102284.06;5096875;28;20215;-73
2023/10/05 01:25:04;;;;;;;5.50;1.58;;;;;;;14.88;91.65;102279.72;5097042;28;20040;-73
2023/10/05 01:27:34;;;;;;;5.78;1.83;;;;;;;14.87;91.20;102280.63;5096468;28;20091;-73
2023/10/05 01:30:00;;;;;;;2.95;1.40;;;;;;;14.89;91.33;102275.28;5109553;28;20236;-73
2023/10/05 01:32:26;;;;;;;7.53;1.95;;;;;;;14.89;90.97;102286.69;5098958;28;20099;-73
2023/10/05 01:34:52;;;;;;;2.50;1.40;;;;;;;14.89;91.05;102275.28;5097656;28;20289;-73
2023/10/05 01:37:21;;;;;;;2.22;1.55;;;;;;;14.90;91.09;102280.50;5096894;28;20036;-72
2023/10/05 01:39:46;;;;;;;2.88;1.42;;;;;;;14.92;91.58;102291.00;5097817;28;20254;-73
2023/10/05 01:42:12;;;;;;;4.63;1.42;;;;;;;14.92;91.18;102286.59;5096614;28;20361;-73
2023/10/05 01:44:40;;;;;;;4.32;1.20;;;;;;;14.92;91.33;102291.00;5096548;28;20506;-73
2023/10/05 01:47:06;;;;;;;6.35;1.55;;;;;;;14.91;90.27;102295.41;5096551;28;20208;-73
2023/10/05 01:49:32;;;;;;;6.00;2.10;;;;;;;14.91;90.11;102282.22;5101337;28;20131;-73
2023/10/05 01:51:58;;;;;;;5.05;1.60;;;;;;;14.92;90.18;102291.00;5094055;28;20047;-73
2023/10/05 01:54:26;;;;;;;2.05;1.10;;;;;;;14.92;90.46;102288.38;5104634;28;20027;-72
2023/10/05 01:56:54;;;;;;;6.45;1.63;;;;;;;14.91;90.09;102286.66;5107573;28;20301;-73
2023/10/05 01:59:21;;;;;;;3.90;1.50;;;;;;;14.91;89.55;102290.13;5096740;28;20047;-73
2023/10/05 02:01:47;;;;;;;2.97;1.00;;;;;;;14.91;89.75;102290.13;5095939;28;20364;-72
2023/10/05 02:04:14;;;;;;;2.80;1.20;;;;;;;14.92;90.01;102289.22;5095765;28;20048;-73
2023/10/05 02:06:40;;;;;;;2.88;1.35;;;;;;;14.91;90.12;102284.84;5094407;28;20030;-73
2023/10/05 02:09:09;;;;;;;1.30;1.02;;;;;;;14.91;90.42;102281.38;5091138;28;20046;-73
2023/10/05 02:11:35;;;;;;;1.30;1.00;;;;;;;14.90;90.53;102283.16;5094698;28;20357;-73
2023/10/05 02:14:01;;;;;;;4.40;1.52;;;;;;;14.88;89.75;102277.06;5095393;28;20065;-72
2023/10/05 02:16:27;;;;;;;1.27;1.08;;;;;;;14.88;89.76;102279.72;5094594;28;20047;-72
2023/10/05 02:18:53;;;;;;;2.25;1.20;;;;;;;14.89;89.98;102277.94;5094706;28;20055;-72
2023/10/05 02:21:40;;;;;;;1.48;1.00;;;;;;;14.89;90.19;102275.28;5094820;28;20066;-73
2023/10/05 02:24:18;;;;;;;2.08;1.15;;;;;;;14.89;90.39;102270.00;5094366;28;20051;-72
2023/10/05 02:29:28;;;;;;;2.15;1.17;;;;;;;14.86;90.34;102270.13;5094845;28;20365;-72
2023/10/05 02:32:05;;;;;;;3.22;1.42;;;;;;;14.87;90.53;102269.22;5095108;28;20102;-72
2023/10/05 02:34:44;;;;;;;1.20;0.97;;;;;;;14.86;90.72;102257.81;5093743;28;20059;-73
2023/10/05 02:37:11;;;;;;;3.30;1.38;;;;;;;14.86;90.83;102271.00;5094313;28;20285;-73
2023/10/05 02:39:41;;;;;;;2.85;1.20;;;;;;;14.84;91.05;102269.31;5094441;28;20142;-72
2023/10/05 02:42:12;;;;;;;2.10;1.17;;;;;;;14.83;91.04;102275.53;5094710;28;20036;-73
2023/10/05 02:44:38;;;;;;;1.90;1.10;;;;;;;14.84;91.10;102274.59;5094383;28;20042;-73
2023/10/05 02:47:14;;;;;;;1.48;1.20;;;;;;;14.84;91.25;102264.03;5094485;28;20028;-73
2023/10/05 02:49:44;;;;;;;2.55;1.20;;;;;;;14.84;91.33;102264.03;5093603;28;20370;-73
2023/10/05 02:52:13;;;;;;;5.35;1.80;;;;;;;14.83;91.12;102262.34;5094406;28;20035;-73
2023/10/05 02:54:42;;;;;;;3.75;1.30;;;;;;;14.84;91.13;102251.69;5093004;28;20067;-73
2023/10/05 02:57:09;;;;;;;2.47;1.20;;;;;;;14.84;91.25;102259.63;5094216;28;20221;-73
2023/10/05 02:59:34;;;;;;;4.68;1.60;;;;;;;14.83;91.13;102259.69;5094175;28;20399;-72
2023/10/05 03:02:06;;;;;;;2.70;1.30;;;;;;;14.83;91.09;102251.78;5094386;28;20095;-73
2023/10/05 03:05:07;;;;;;;3.70;1.38;;;;;;;14.81;90.98;102256.22;5093483;28;20112;-73
2023/10/05 03:07:25;;;;;;;4.47;1.45;;;;;;;14.81;91.31;102256.22;5092391;28;20047;-73
2023/10/05 03:09:52;;;;;;;2.35;1.20;;;;;;;14.81;91.36;102261.50;5092684;28;20128;-72
2023/10/05 03:12:21;;;;;;;4.22;1.80;;;;;;;14.75;89.58;102255.56;5094029;28;20397;-72
2023/10/05 03:14:50;;;;;;;4.85;1.85;;;;;;;14.74;89.56;102259.09;5092284;28;20046;-72
2023/10/05 03:17:22;;;;;;;2.50;1.40;;;;;;;14.74;90.05;102263.53;5093969;28;20050;-72
2023/10/05 03:19:48;;;;;;;1.92;1.27;;;;;;;14.74;89.96;102259.09;5092841;28;20027;-72
2023/10/05 03:22:13;;;;;;;1.60;1.25;;;;;;;14.73;90.32;102257.34;5093446;28;20046;-72
2023/10/05 03:24:47;;;;;;;3.05;1.58;;;;;;;14.73;90.44;102259.16;5092155;28;20028;-72
2023/10/05 03:27:16;;;;;;;2.80;1.20;;;;;;;14.72;90.61;102266.19;5093827;28;20111;-72
2023/10/05 03:29:45;;;;;;;3.58;1.73;;;;;;;14.70;90.45;102267.19;5093503;28;20040;-73
2023/10/05 03:32:13;;;;;;;4.47;1.65;;;;;;;14.68;90.35;102263.72;5093908;28;20274;-72
2023/10/05 03:34:43;;;;;;;;;;;;;;;14.67;90.30;102264.66;5094090;28;20109;-72
2023/10/05 03:37:15;;;;;;;3.42;1.40;;;;;;;14.66;90.45;102266.44;5092673;28;19930;-72
2023/10/05 03:42:25;;;;;;;2.85;1.40;;;;;;;14.64;90.71;102256.84;5093610;28;20065;-72
2023/10/05 03:45:09;;;;;;;2.33;1.50;;;;;;;14.63;90.82;102255.13;5091847;28;20335;-72
2023/10/05 03:47:38;;;;;;;1.88;1.40;;;;;;;14.62;91.15;102259.53;5093451;28;20032;-72
2023/10/05 03:50:16;;;;;;;2.95;1.10;;;;;;;14.61;91.21;102263.09;5089568;28;20047;-72
2023/10/05 03:52:44;;;;;;;;;;;;;;;14.57;91.13;102262.34;5091073;28;20032;-72
2023/10/05 03:55:10;;;;;;;5.20;1.40;;;;;;;14.56;90.87;102259.72;5092096;28;19915;-72
2023/10/05 03:57:41;;;;;;;2.83;1.50;;;;;;;14.54;90.88;102275.59;5092997;28;20134;-72
2023/10/05 04:02:43;;;;;;;2.95;1.40;;;;;;;14.50;90.76;102266.06;5093415;28;20350;-72
2023/10/05 04:05:11;;;;;;;3.65;1.48;;;;;;;14.49;91.12;102266.97;5093264;28;20059;-72
2023/10/05 04:07:38;;;;;;;2.08;1.27;;;;;;;14.52;91.08;102271.28;5092865;28;20054;-73
2023/10/05 04:10:05;;;;;;;2.92;1.70;;;;;;;14.50;91.05;102257.31;5091576;28;20218;-72
2023/10/05 04:12:32;;;;;;;4.37;1.60;;;;;;;14.50;91.06;102257.31;5090825;28;20123;-72
2023/10/05 04:15:00;;;;;;;2.47;1.65;;;;;;;14.48;91.23;102246.81;5093850;28;20039;-72
2023/10/05 04:17:26;;;;;;;2.80;1.30;;;;;;;14.49;91.29;102252.94;5093270;28;20409;-72
2023/10/05 04:19:52;;;;;;;1.83;1.13;;;;;;;14.49;91.45;102250.28;5091567;28;20035;-73
2023/10/05 04:22:17;;;;;;;1.67;1.25;;;;;;;14.48;91.68;102249.44;5097151;28;20035;-72
2023/10/05 04:24:44;;;;;;;2.55;1.52;;;;;;;14.48;91.82;102254.72;5095168;28;20262;-72
2023/10/05 04:27:10;;;;;;;7.25;1.65;;;;;;;14.47;91.59;102260.88;5096885;28;20323;-72
2023/10/05 04:29:37;;;;;;;2.33;1.42;;;;;;;14.46;91.66;102256.53;5097109;28;20134;-72
2023/10/05 04:32:03;;;;;;;4.40;1.50;;;;;;;14.45;91.75;102262.72;5097447;28;20028;-72
2023/10/05 04:34:31;;;;;;;4.22;1.52;;;;;;;14.47;91.79;102262.66;5096072;28;20024;-72
2023/10/05 04:36:58;;;;;;;2.25;1.30;;;;;;;14.47;91.96;102260.88;5096765;28;20396;-72
2023/10/05 04:39:30;;;;;;;3.80;1.40;;;;;;;14.47;91.86;102260.03;5095458;28;20091;-72
2023/10/05 04:42:07;;;;;;;2.05;1.17;;;;;;;14.44;91.79;102257.50;5096917;28;20050;-72
2023/10/05 04:44:34;;;;;;;2.17;1.42;;;;;;;14.43;91.76;102258.44;5095884;28;20276;-72
2023/10/05 04:46:59;;;;;;;1.52;1.20;;;;;;;14.41;91.58;102261.13;5096860;28;20300;-72
2023/10/05 04:49:27;;;;;;;1.60;1.13;;;;;;;14.40;91.81;102259.38;5095648;28;20031;-72
2023/10/05 04:51:53;;;;;;;3.78;1.50;;;;;;;14.39;91.55;102269.06;5094669;28;20039;-72
2023/10/05 04:54:19;;;;;;;6.00;1.63;;;;;;;14.38;91.49;102259.41;5095336;28;20031;-72
2023/10/05 04:56:54;;;;;;;4.53;1.33;;;;;;;14.37;91.51;102264.75;5095969;28;20039;-72
2023/10/05 05:02:18;;;;;;;2.80;1.30;;;;;;;14.36;91.82;102263.03;5086989;28;20071;-72
2023/10/05 05:07:12;;;;;;;5.03;1.35;;;;;;;14.33;91.99;102279.78;5096569;28;20040;-72
2023/10/05 05:09:42;;;;;;;1.95;1.20;;;;;;;14.34;92.15;102272.78;5094824;28;20066;-72
2023/10/05 05:12:16;;;;;;;4.30;1.70;;;;;;;14.31;91.90;102271.09;5096347;28;20035;-72
2023/10/05 05:14:42;;;;;;;4.43;1.58;;;;;;;14.30;91.97;102276.44;5094959;28;20032;-72
2023/10/05 05:17:13;;;;;;;3.03;1.40;;;;;;;14.29;92.09;102275.53;5096174;28;20040;-72
2023/10/05 05:19:41;;;;;;;2.45;1.40;;;;;;;14.28;92.18;102273.84;5095986;28;20090;-72
2023/10/05 05:22:08;;;;;;;2.17;1.30;;;;;;;14.30;92.29;102276.44;5096128;28;20035;-72
2023/10/05 05:24:35;;;;;;;2.83;1.33;;;;;;;14.29;92.43;102278.19;5091826;28;20230;-72
2023/10/05 05:27:00;;;;;;;3.33;1.05;;;;;;;14.29;92.45;102277.34;5093942;28;20032;-72
2023/10/05 05:29:33;;;;;;;1.90;1.20;;;;;;;14.30;93.05;102279.06;5091947;28;20098;-72
2023/10/05 05:32:07;;;;;;;2.38;1.23;;;;;;;14.30;92.81;102286.97;5095885;28;20039;-72
2023/10/05 05:34:33;;;;;;;2.92;1.20;;;;;;;14.29;92.96;102285.25;5095215;28;20389;-72
2023/10/05 05:36:58;;;;;;;2.92;1.48;;;;;;;14.29;93.09;102283.44;5093311;28;20036;-72
2023/10/05 05:39:26;;;;;;;2.58;1.45;;;;;;;14.31;93.41;102286.03;5089155;28;20218;-72
2023/10/05 05:42:07;;;;;;;1.77;1.27;;;;;;;14.32;93.28;102285.16;5091138;28;20155;-72
2023/10/05 05:44:34;;;;;;;2.15;1.42;;;;;;;14.31;93.32;102284.25;5088182;28;20082;-72
2023/10/05 05:47:09;;;;;;;1.67;1.17;;;;;;;14.32;93.52;102293.06;5092118;28;20423;-72
2023/10/05 05:49:40;;;;;;;1.77;1.13;;;;;;;14.31;93.61;102286.91;5094075;28;20020;-72
2023/10/05 05:52:11;;;;;;;4.93;1.88;;;;;;;14.32;93.59;102286.00;5093019;28;20032;-72
2023/10/05 05:54:37;;;;;;;4.05;1.45;;;;;;;14.29;93.48;102286.09;5092212;28;20330;-72
2023/10/05 05:57:12;;;;;;;3.25;1.38;;;;;;;14.29;93.81;102282.59;5095484;28;20036;-72
2023/10/05 05:59:39;;;;;;;2.45;1.30;;;;;;;14.30;93.84;102284.34;5092818;28;20113;-72
2023/10/05 06:02:08;;;;;;;5.15;1.50;;;;;;;14.30;93.59;102290.47;5078917;28;20024;-72
2023/10/05 06:04:35;;;;;;;2.55;1.48;;;;;;;14.29;93.70;102286.09;5084462;28;20059;-72
2023/10/05 06:07:01;;;;;;;1.67;1.30;;;;;;;14.29;93.55;102286.09;5091723;28;20097;-72
2023/10/05 06:09:32;;;;;;;2.67;1.20;;;;;;;14.29;93.94;102285.25;5095321;28;20040;-72
2023/10/05 06:11:59;;;;;;;2.35;1.50;;;;;;;14.29;93.92;102288.72;5096166;28;20082;-72
2023/10/05 06:14:24;;;;;;;2.58;1.38;;;;;;;14.29;94.02;102286.09;5094421;28;20036;-72
2023/10/05 06:16:52;;;;;;;2.85;1.30;;;;;;;14.29;94.11;102293.13;5092510;28;20258;-72
2023/10/05 06:19:18;;;;;;;2.67;1.30;;;;;;;14.30;93.87;102302.78;5090825;28;20078;-72
2023/10/05 06:21:45;;;;;;;4.53;1.70;;;;;;;14.29;93.89;102298.41;5089474;28;20031;-72
2023/10/05 06:24:10;;;;;;;4.63;1.52;;;;;;;14.29;93.89;102301.03;5095225;28;20032;-72
2023/10/05 06:26:37;;;;;;;5.10;2.10;;;;;;;14.28;94.17;102305.47;5095524;28;20038;-72
2023/10/05 06:29:05;;;;;;;6.53;1.60;;;;;;;14.28;93.83;102305.47;5095317;28;20230;-72
2023/10/05 06:31:30;;;;;;;2.67;1.50;;;;;;;14.30;93.97;102310.69;5074005;28;20028;-72
2023/10/05 06:33:55;;;;;;;4.50;1.30;;;;;;;14.31;93.99;102304.50;5074350;28;20028;-72
2023/10/05 06:36:22;;;;;;;1.63;1.25;;;;;;;14.32;94.32;102314.13;5093351;28;20099;-72
2023/10/05 06:38:49;;;;;;;5.72;1.60;;;;;;;14.32;94.45;102314.97;5093974;28;20035;-72
2023/10/05 06:41:19;;;;;;;3.85;1.67;;;;;;;14.33;94.38;102315.84;5094056;28;20342;-72
2023/10/05 06:43:46;;;;;;;3.53;1.27;;;;;;;14.31;94.29;102323.78;5093480;28;20129;-72
2023/10/05 06:46:17;;;;;;;3.80;1.38;;;;;;;14.32;94.43;102317.63;5093203;28;20028;-72
2023/10/05 06:48:49;;;;;;;2.95;1.48;;;;;;;14.33;94.62;102329.88;5094832;28;20046;-72
2023/10/05 06:51:22;;;;;;;2.10;1.20;;;;;;;14.33;94.65;102327.22;5094370;28;20055;-72
2023/10/05 06:53:47;;;;;;;2.05;1.20;;;;;;;14.35;94.52;102340.38;5094975;28;20032;-72
2023/10/05 06:56:12;;;;;;;2.88;1.20;;;;;;;14.36;94.73;102340.31;5093500;28;20102;-72
2023/10/05 06:58:41;;;;;;;2.88;1.25;;;;;;;14.38;94.61;102343.75;5093107;28;20028;-72
2023/10/05 07:01:06;;;;;;;;;;;;;;;14.36;94.66;102342.94;5094974;28;20356;-72
2023/10/05 07:03:32;;;;;;;2.20;1.35;;;;;;;14.38;94.80;102354.31;5085280;28;19936;-72
2023/10/05 07:05:59;;;;;;;4.15;1.65;;;;;;;14.39;94.70;102353.41;5087444;28;20052;-72
2023/10/05 07:08:24;;;;;;;2.47;1.40;;;;;;;14.39;94.94;102356.03;5095062;28;20250;-72
2023/10/05 07:10:50;;;;;;;1.45;1.10;;;;;;;14.42;94.82;102364.75;5094120;28;20036;-72
2023/10/05 07:13:19;;;;;;;3.15;1.50;;;;;;;14.42;95.04;102372.66;5086652;28;20042;-72
2023/10/05 07:15:45;;;;;;;3.67;1.27;;;;;;;14.44;95.03;102373.47;5094182;28;20113;-72
2023/10/05 07:18:10;;;;;;;1.88;1.35;;;;;;;14.46;95.13;102376.91;5091009;28;20040;-72
2023/10/05 07:20:36;;;;;;;5.97;1.92;;;;;;;14.47;95.20;102381.28;5074761;28;20246;-72
2023/10/05 07:23:03;;;;;;;2.60;1.42;;;;;;;14.49;95.05;102382.94;5090775;28;20036;-72
2023/10/05 07:25:28;;;;;;;3.80;1.60;;;;;;;14.50;95.46;102387.31;5087813;28;20349;-72
2023/10/05 07:27:55;;;;;;;3.50;1.27;;;;;;;14.50;95.41;102387.31;5089471;28;20095;-73
2023/10/05 07:30:21;;;;;;;2.78;1.75;;;;;;;14.53;95.66;102383.72;5088646;28;20028;-73
2023/10/05 07:32:46;;;;;;;2.35;1.52;;;;;;;14.55;95.41;102380.13;5090603;28;20252;-73
2023/10/05 07:35:12;;;;;;;2.95;1.30;;;;;;;14.58;95.35;102373.91;5087095;28;20077;-73
2023/10/05 07:37:38;;;;;;;4.60;1.63;;;;;;;14.62;95.37;102382.59;5086134;28;20042;-73
2023/10/05 07:40:25;;;;;;;3.50;1.38;;;;;;;14.64;95.27;102373.69;5078901;28;20332;-73
2023/10/05 07:42:49;;;;;;;4.13;1.23;;;;;;;14.66;95.25;102377.19;5084559;28;20043;-73
2023/10/05 07:45:15;;;;;;;1.25;1.00;;;;;;;14.69;95.10;102384.97;5087826;28;20081;-73
2023/10/05 07:47:46;;;;;;;2.10;1.20;;;;;;;14.71;95.11;102388.41;5090785;28;20214;-73
2023/10/05 07:50:12;;;;;;;2.55;0.90;;;;;;;14.73;95.03;102389.22;5089501;28;20063;-73
2023/10/05 07:52:39;;;;;;;1.65;1.00;;;;;;;14.78;94.93;102392.56;5084645;28;20047;-73
2023/10/05 07:55:06;;;;;;;4.55;1.40;;;;;;;14.81;94.88;102394.25;5088623;28;20111;-73
2023/10/05 07:57:31;;;;;;;3.05;1.30;;;;;;;14.84;94.87;102401.19;5092645;28;20458;-73
2023/10/05 07:59:57;;;;;;;2.95;1.20;;;;;;;14.88;94.64;102413.34;5093910;28;20691;-73
2023/10/05 08:02:22;;;;;;;2.28;1.30;;;;;;;14.91;94.42;102407.97;5084664;28;20224;-73
2023/10/05 08:04:48;;;;;;;1.80;1.13;;;;;;;14.93;94.35;102409.63;5094640;28;20074;-73
2023/10/05 08:07:13;;;;;;;3.40;1.38;;;;;;;14.95;94.35;102407.84;5086662;28;20036;-73
2023/10/05 08:09:42;;;;;;;7.00;1.83;;;;;;;14.98;94.55;102405.06;5093706;28;20040;-73
2023/10/05 08:12:08;;;;;;;1.67;1.10;;;;;;;15.01;94.07;102412.03;5095785;28;20031;-73
2023/10/05 08:14:34;;;;;;;1.85;1.17;;;;;;;15.04;94.05;102414.56;5086139;28;20320;-73
2023/10/05 08:16:59;;;;;;;2.63;1.30;;;;;;;15.06;93.82;102419.78;5094259;28;20039;-73
2023/10/05 08:19:25;;;;;;;4.28;1.70;;;;;;;15.09;93.88;102430.25;5084726;28;20032;-73
2023/10/05 08:21:54;;;;;;;4.93;1.90;;;;;;;15.09;94.26;102425.81;5084834;28;20040;-73
2023/10/05 08:24:20;;;;;;;2.88;1.30;;;;;;;15.11;94.46;102434.53;5093681;28;20228;-73
2023/10/05 08:26:48;;;;;;;3.47;1.75;;;;;;;15.12;94.44;102440.69;5095487;28;20035;-73
2023/10/05 08:29:16;;;;;;;7.68;1.73;;;;;;;15.14;94.55;102438.88;5088952;28;20048;-73
2023/10/05 08:31:44;;;;;;;3.13;1.52;;;;;;;15.16;94.23;102439.66;5090325;28;20044;-73
2023/10/05 08:34:11;;;;;;;5.83;1.53;;;;;;;15.20;94.34;102438.63;5094325;28;20039;-73
2023/10/05 08:36:36;;;;;;;6.47;1.80;;;;;;;15.20;93.99;102440.44;5086248;28;20032;-73
2023/10/05 08:39:03;;;;;;;3.15;1.42;;;;;;;15.23;94.06;102442.97;5087844;28;20258;-73
2023/10/05 08:41:35;;;;;;;3.42;1.23;;;;;;;15.24;93.93;102442.88;5092738;28;20333;-73
2023/10/05 08:44:10;;;;;;;3.05;1.45;;;;;;;15.26;93.86;102448.13;5090349;28;20238;-73
2023/10/05 08:46:42;;;;;;;5.95;1.98;;;;;;;15.27;93.88;102450.72;5089295;28;20245;-73
2023/10/05 08:49:09;;;;;;;7.45;2.20;;;;;;;15.29;94.14;102458.56;5087989;28;20038;-73
2023/10/05 08:51:37;;;;;;;4.18;1.70;;;;;;;15.31;93.88;102457.59;5087792;28;20238;-73
2023/10/05 08:54:09;;;;;;;4.20;1.60;;;;;;;15.32;93.93;102467.25;5088479;28;20040;-73
2023/10/05 08:56:36;;;;;;;4.57;1.50;;;;;;;15.35;94.49;102474.19;5085109;28;20107;-73
2023/10/05 08:59:07;;;;;;;5.18;1.83;;;;;;;15.36;94.38;102479.41;5083870;28;20333;-73
2023/10/05 09:01:33;;;;;;;4.32;1.70;;;;;;;15.40;94.33;102481.97;5093754;28;20113;-73
2023/10/05 09:04:01;;;;;;;4.97;1.63;;;;;;;15.42;94.09;102491.53;5080705;28;20040;-73
2023/10/05 09:06:28;;;;;;;2.37;1.70;;;;;;;15.44;94.26;102488.84;5028353;28;1758309;-73
2023/10/05 09:09:07;;;;;;;3.67;1.48;;;;;;;15.46;94.09;102487.00;5090451;28;20081;-73
2023/10/05 09:11:34;;;;;;;6.43;1.80;;;;;;;15.47;94.34;102489.59;5089522;28;20035;-73
2023/10/05 09:14:13;;;;;;;4.53;1.73;;;;;;;15.47;94.87;102486.13;5088036;28;20053;-73
2023/10/05 09:16:43;;;;;;;8.90;2.03;;;;;;;15.49;94.79;102489.56;5090644;28;20058;-73
2023/10/05 09:19:15;;;;;;;7.50;1.58;;;;;;;15.49;94.57;102495.69;5091329;28;20062;-73
2023/10/05 09:21:50;;;;;;;3.22;1.75;;;;;;;15.50;94.47;102494.78;5092005;28;20365;-73
2023/10/05 09:24:20;;;;;;;4.65;1.40;;;;;;;15.51;94.13;102499.13;5089872;28;20055;-73
2023/10/05 09:26:54;;;;;;;1.95;1.50;;;;;;;15.52;94.29;102498.22;5093509;28;20389;-73
2023/10/05 09:29:23;;;;;;;2.88;1.30;;;;;;;15.53;94.07;102499.09;5094662;28;20028;-73
2023/10/05 09:31:53;;;;;;;2.20;1.17;;;;;;;15.53;94.11;102499.97;5094706;28;20123;-73
2023/10/05 09:34:36;;;;;;;2.10;1.50;;;;;;;15.55;93.95;102495.50;5088720;28;20254;-73
2023/10/05 09:37:06;;;;;;;7.70;1.52;;;;;;;15.56;94.08;102493.72;5090415;28;20575;-73
2023/10/05 09:39:43;;;;;;;3.70;1.80;;;;;;;15.58;94.09;102498.94;5087429;28;20196;-73
2023/10/05 09:42:25;;;;;;;7.07;2.00;;;;;;;15.59;94.21;102503.28;5089110;28;20077;-73
2023/10/05 09:44:52;;;;;;;4.35;2.08;;;;;;;15.60;94.18;102503.25;5089834;28;20036;-73
2023/10/05 09:47:21;;;;;;;6.20;2.23;;;;;;;15.63;94.10;102500.50;5089642;28;20326;-73
2023/10/05 09:49:50;;;;;;;4.20;1.45;;;;;;;15.66;94.09;102502.16;5086190;28;20029;-73
2023/10/05 09:52:19;;;;;;;3.17;1.30;;;;;;;15.69;93.80;102502.06;5092282;28;20042;-73
2023/10/05 09:54:47;;;;;;;9.13;1.67;;;;;;;15.71;93.92;102510.78;5092008;28;20096;-73
2023/10/05 09:57:16;;;;;;;4.43;1.73;;;;;;;15.73;93.96;102514.22;5092604;28;20425;-73
2023/10/05 09:59:44;;;;;;;5.07;1.63;;;;;;;15.74;93.81;102513.34;5089842;28;20335;-73
2023/10/05 10:02:16;;;;;;;5.53;1.88;;;;;;;15.77;94.09;102510.63;5095116;28;20081;-73
2023/10/05 10:04:42;;;;;;;13.20;2.83;;;;;;;15.77;94.49;102510.63;5091829;28;20051;-73
2023/10/05 10:07:15;;;;;;;8.10;1.60;;;;;;;15.79;94.47;102508.78;5095126;28;20028;-73
2023/10/05 10:09:46;;;;;;;9.65;2.03;;;;;;;15.81;94.40;102512.22;5089460;28;20035;-73
2023/10/05 10:12:43;;;;;;;4.15;1.40;;;;;;;15.84;94.33;102508.59;5084283;28;20040;-73
2023/10/05 10:15:24;;;;;;;2.90;1.58;;;;;;;15.87;93.95;102508.50;5088746;28;20031;-73
2023/10/05 10:18:03;;;;;;;4.80;1.50;;;;;;;15.91;93.92;102507.44;5091241;28;20406;-73
2023/10/05 10:20:35;;;;;;;;;;;;;;;15.95;93.81;102508.19;5084749;28;20404;-73
2023/10/05 10:23:21;;;;;;;9.15;1.95;;;;;;;15.99;93.34;102497.47;5084562;28;19915;-73
2023/10/05 10:25:51;;;;;;;7.18;1.63;;;;;;;16.02;93.13;102499.97;5076219;28;20044;-73
2023/10/05 10:28:39;;;;;;;9.90;1.70;;;;;;;16.02;92.57;102497.34;5081921;28;20339;-73
2023/10/05 10:31:25;;;;;;;4.05;1.35;;;;;;;16.05;92.80;102501.66;5081572;28;20406;-73
2023/10/05 10:33:51;;;;;;;7.60;2.00;;;;;;;16.04;92.73;102502.56;5081930;28;20059;-73
2023/10/05 10:36:52;;;;;;;4.22;1.65;;;;;;;16.03;92.62;102507.00;5086638;28;20330;-73
2023/10/05 10:39:27;;;;;;;2.85;1.45;;;;;;;16.03;92.71;102504.38;5085073;28;20158;-73
2023/10/05 10:41:53;;;;;;;2.92;1.23;;;;;;;16.01;92.55;102506.22;5092948;28;20028;-73
2023/10/05 10:44:21;;;;;;;1.95;1.00;;;;;;;15.99;92.58;102497.47;5091065;28;20093;-73
2023/10/05 10:46:54;;;;;;;3.33;1.20;;;;;;;15.98;92.78;102510.75;5092011;28;20141;-73
2023/10/05 10:49:19;;;;;;;2.90;1.40;;;;;;;15.97;93.04;102509.88;5090237;28;20040;-73
2023/10/05 10:51:46;;;;;;;3.80;1.40;;;;;;;15.98;92.92;102505.47;5087432;28;20311;-73
2023/10/05 10:54:17;;;;;;;3.90;2.13;;;;;;;16.00;93.00;102506.25;5085811;28;20260;-73
2023/10/05 10:56:44;;;;;;;6.97;1.95;;;;;;;16.00;92.14;102506.25;5083523;28;20042;-73
2023/10/05 10:59:19;;;;;;;3.25;1.40;;;;;;;16.00;92.31;102514.19;5089518;28;20111;-73
2023/10/05 11:01:52;;;;;;;3.65;1.65;;;;;;;16.02;92.38;102509.69;5087504;28;20343;-73
2023/10/05 11:04:25;;;;;;;5.15;1.55;;;;;;;16.02;92.28;102507.06;5089395;28;20036;-73
2023/10/05 11:07:14;;;;;;;3.95;1.77;;;;;;;16.04;92.13;102507.84;5084926;28;20040;-74
2023/10/05 11:09:49;;;;;;;3.60;1.48;;;;;;;16.05;92.27;102513.09;5088337;28;20389;-73
2023/10/05 11:12:21;;;;;;;3.67;1.75;;;;;;;16.08;92.18;102515.63;5089063;28;20043;-73
2023/10/05 11:14:47;;;;;;;5.32;1.95;;;;;;;16.11;92.20;102506.72;5084072;28;20099;-73
2023/10/05 11:17:36;;;;;;;6.72;2.10;;;;;;;16.13;90.93;102499.59;5086897;28;20208;-73
2023/10/05 11:20:12;;;;;;;6.97;1.60;;;;;;;16.15;90.97;102503.03;5085340;28;20043;-73
2023/10/05 11:22:42;;;;;;;6.85;2.08;;;;;;;16.20;91.11;102509.00;5085259;28;20036;-73
2023/10/05 11:25:23;;;;;;;4.97;1.98;;;;;;;16.19;90.84;102504.66;5085888;28;20094;-73
2023/10/05 11:27:55;;;;;;;3.67;1.45;;;;;;;16.21;91.00;102510.75;5089639;28;20109;-73
2023/10/05 11:30:24;;;;;;;2.78;1.35;;;;;;;16.24;90.91;102517.69;5090770;28;20066;-73
2023/10/05 11:32:55;;;;;;;3.97;1.83;;;;;;;16.25;91.09;102506.19;5092547;28;20120;-73
2023/10/05 11:35:29;;;;;;;3.17;1.40;;;;;;;16.27;91.02;102501.72;5089161;28;20099;-73
2023/10/05 11:38:05;;;;;;;2.25;1.20;;;;;;;16.32;91.06;102515.63;5094231;28;20484;-73
2023/10/05 11:40:33;;;;;;;5.18;1.52;;;;;;;16.35;90.78;102509.34;5091718;28;20034;-73
2023/10/05 11:43:04;;;;;;;2.75;1.30;;;;;;;16.40;90.79;102510.03;5080298;28;20043;-73
2023/10/05 11:45:30;;;;;;;3.40;1.33;;;;;;;16.44;90.16;102512.47;5090060;28;20054;-74
2023/10/05 11:47:56;;;;;;;2.90;1.63;;;;;;;16.47;90.17;102507.09;5091302;28;20038;-73
2023/10/05 11:50:32;;;;;;;4.18;1.80;;;;;;;16.50;90.36;102509.63;5093439;28;20039;-73
2023/10/05 11:52:57;;;;;;;3.42;1.60;;;;;;;16.51;90.17;102513.97;5084457;28;20354;-73
2023/10/05 11:55:23;;;;;;;6.20;1.67;;;;;;;16.51;89.79;102523.69;5092213;28;20028;-73
2023/10/05 11:57:48;;;;;;;4.50;1.70;;;;;;;16.54;89.96;102518.28;5088118;28;20032;-73
2023/10/05 12:00:16;;;;;;;4.40;1.80;;;;;;;16.58;89.53;102511.09;5087254;28;20032;-73
2023/10/05 12:02:43;;;;;;;5.78;1.67;;;;;;;16.63;89.14;102511.78;5087229;28;20349;-73
2023/10/05 12:05:09;;;;;;;6.82;1.58;;;;;;;16.66;88.84;102515.19;5088701;28;20048;-74